This is the latest recevied weather packets stored in our database for station/object IU3OVK-13. If no packets are shown the sender has not sent any weather packets the latest 10 day(s).
| Time | Temp. | Humidity | Pressure | Rain* | Wind** | Luminosity | Snow |
|---|---|---|---|---|---|---|---|
| 1777735530 | 22.78° C | 80% | 1013.7 hPa | - | - | - | - |
| 1777733670 | 22.22° C | 78% | 1013.9 hPa | - | - | - | - |
| 1777732429 | 22.22° C | 79% | 1014.2 hPa | - | - | - | - |
| 1777731189 | 22.22° C | 78% | 1014.6 hPa | - | - | - | - |
| 1777730569 | 22.78° C | 78% | 1014.4 hPa | - | - | - | - |
| 1777729949 | 22.22° C | 77% | 1014.7 hPa | - | - | - | - |
| 1777728709 | 22.78° C | 77% | 1015.1 hPa | - | - | - | - |
| 1777728089 | 23.33° C | 74% | 1015 hPa | - | - | - | - |
| 1777727468 | 23.33° C | 75% | 1015.1 hPa | - | - | - | - |
| 1777726228 | 23.33° C | 74% | 1015.3 hPa | - | - | - | - |
| 1777725608 | 23.33° C | 73% | 1015.3 hPa | - | - | - | - |
| 1777724368 | 23.33° C | 73% | 1015.4 hPa | - | - | - | - |
| 1777723749 | 22.78° C | 73% | 1015.6 hPa | - | - | - | - |
| 1777723128 | 21.67° C | 77% | 1015.9 hPa | - | - | - | - |
| 1777721887 | 22.22° C | 77% | 1016 hPa | - | - | - | - |
| 1777721267 | 20.56° C | 77% | 1016.4 hPa | - | - | - | - |
| 1777720647 | 23.33° C | 73% | 1016.4 hPa | - | - | - | - |
| 1777720028 | 21.67° C | 72% | 1017.1 hPa | - | - | - | - |
| 1777719407 | 23.33° C | 70% | 1017.4 hPa | - | - | - | - |
| 1777718166 | 23.89° C | 69% | 1018 hPa | - | - | - | - |
| 1777717546 | 24.44° C | 67% | 1018.4 hPa | - | - | - | - |
| 1777715684 | 32.78° C | 54% | 1017 hPa | - | - | - | - |
| 1777715064 | 34.44° C | 55% | 1017.1 hPa | - | - | - | - |
| 1777714444 | 35° C | 54% | 1017.1 hPa | - | - | - | - |
| 1777713204 | 40.56° C | 53% | 1016.2 hPa | - | - | - | - |
* Rain since midnight (hover to see other rain measurements)
** Current wind speed in m/s (hover to see current wind gust speed)